createdAt,value
2023-04-26T03:41:05.017Z,100.00
2023-04-26T03:44:08.525Z,100.00
2023-04-26T03:47:11.203Z,100.00
2023-04-26T03:50:14.347Z,100.00
2023-04-26T03:53:16.982Z,100.00
2023-04-26T03:56:20.023Z,100.00
2023-04-26T03:59:23.774Z,100.00
2023-04-26T04:02:26.995Z,100.00
2023-04-26T04:05:31.215Z,100.00
2023-04-26T04:08:34.212Z,100.00
2023-04-26T04:11:37.224Z,100.00
2023-04-26T04:14:39.982Z,100.00
2023-04-26T04:17:43.015Z,100.00
2023-04-26T04:20:46.445Z,100.00
2023-04-26T04:23:50.371Z,100.00
2023-04-26T04:26:53.113Z,100.00
2023-04-26T04:29:56.361Z,100.00
2023-04-26T04:33:00.287Z,100.00
2023-04-26T04:36:03.563Z,100.00
2023-04-26T04:39:12.359Z,100.00
2023-04-26T04:42:16.059Z,100.00
2023-04-26T04:45:18.798Z,100.00
2023-04-26T04:48:30.390Z,100.00
2023-04-26T04:51:33.297Z,100.00
2023-04-26T04:54:36.286Z,100.00
2023-04-26T04:57:40.612Z,100.00
2023-04-26T05:00:47.010Z,100.00
2023-04-26T05:03:50.700Z,100.00
2023-04-26T05:06:54.160Z,100.00
2023-04-26T05:09:58.531Z,100.00
2023-04-26T05:13:01.723Z,100.00
2023-04-26T05:16:04.486Z,100.00
2023-04-26T05:19:09.496Z,100.00
2023-04-26T05:22:21.177Z,100.00
2023-04-26T05:25:24.180Z,100.00
2023-04-26T05:28:28.000Z,100.00
2023-04-26T05:31:32.837Z,100.00
2023-04-26T05:34:36.631Z,100.00
2023-04-26T05:37:40.131Z,100.00
2023-04-26T05:40:43.368Z,100.00
2023-04-26T05:43:47.760Z,100.00
2023-04-26T05:46:50.688Z,100.00
2023-04-26T05:49:53.860Z,100.00
2023-04-26T05:52:56.466Z,100.00
2023-04-26T05:55:59.366Z,100.00
2023-04-26T05:59:02.244Z,94.50
2023-04-26T06:02:07.131Z,93.99
2023-04-26T06:05:10.793Z,93.60
2023-04-26T06:08:14.168Z,91.15
2023-04-26T06:11:17.186Z,90.69
2023-04-26T06:14:29.837Z,95.21
2023-04-26T06:17:34.077Z,88.85
2023-04-26T06:20:36.911Z,86.50
2023-04-26T06:23:41.851Z,85.39
2023-04-26T06:26:44.528Z,86.65
2023-04-26T06:29:47.758Z,87.32
2023-04-26T06:32:51.539Z,85.31
2023-04-26T06:35:54.478Z,80.31
2023-04-26T06:38:57.172Z,78.72
2023-04-26T06:42:03.608Z,75.44
2023-04-26T06:45:09.096Z,78.02
2023-04-26T06:48:12.213Z,71.28
2023-04-26T06:51:15.040Z,73.06
2023-04-26T06:54:17.804Z,71.90
2023-04-26T06:57:20.500Z,70.49
2023-04-26T07:00:23.870Z,71.98
2023-04-26T07:03:27.026Z,64.30
2023-04-26T07:06:34.095Z,66.01
2023-04-26T07:09:37.046Z,64.61
2023-04-26T07:12:40.010Z,61.60
2023-04-26T07:15:42.713Z,60.90
2023-04-26T07:18:48.298Z,58.65
2023-04-26T07:21:51.050Z,55.28
2023-04-26T07:24:54.341Z,51.11
2023-04-26T07:27:57.073Z,53.92
2023-04-26T07:31:01.660Z,53.60
2023-04-26T07:34:04.369Z,48.32
2023-04-26T07:37:07.208Z,46.96
2023-04-26T07:40:11.544Z,46.69
2023-04-26T07:43:15.653Z,46.16
2023-04-26T07:46:18.667Z,46.18
2023-04-26T07:49:21.775Z,45.20
2023-04-26T07:52:24.475Z,45.52
2023-04-26T07:55:27.500Z,44.35
2023-04-26T07:58:30.282Z,45.36
2023-04-26T08:01:33.685Z,43.52
2023-04-26T08:04:36.988Z,43.54
2023-04-26T08:07:40.284Z,44.39
2023-04-26T08:10:43.139Z,44.01
2023-04-26T08:13:46.327Z,44.16
2023-04-26T08:16:49.417Z,43.63
2023-04-26T08:19:52.114Z,42.40
2023-04-26T08:22:58.463Z,44.30
2023-04-26T08:26:01.456Z,43.64
2023-04-26T08:29:04.195Z,42.06
2023-04-26T08:32:07.259Z,43.10
2023-04-26T08:35:10.741Z,43.83
2023-04-26T08:38:13.525Z,43.85
2023-04-26T08:41:22.532Z,43.70
2023-04-26T08:44:25.698Z,42.25
2023-04-26T08:47:36.501Z,42.63
2023-04-26T08:50:40.745Z,43.64
2023-04-26T08:53:44.116Z,43.48
2023-04-26T08:56:47.884Z,44.87
2023-04-26T08:59:52.790Z,44.06
2023-04-26T09:02:55.746Z,41.42
2023-04-26T09:06:01.141Z,41.33
2023-04-26T09:09:29.725Z,41.47
2023-04-26T09:12:32.770Z,41.27
2023-04-26T09:15:35.832Z,41.67
2023-04-26T09:18:47.424Z,40.93
2023-04-26T09:21:50.012Z,41.01
2023-04-26T09:24:53.065Z,40.92
2023-04-26T09:27:55.974Z,44.41
2023-04-26T09:30:59.150Z,40.30
2023-04-26T09:34:01.822Z,47.16
2023-04-26T09:37:04.872Z,42.75
2023-04-26T09:40:19.558Z,39.38
2023-04-26T09:43:23.063Z,41.10
2023-04-26T09:46:37.087Z,38.55
2023-04-26T09:49:49.129Z,35.63
2023-04-26T09:52:51.893Z,37.34
2023-04-26T09:55:55.281Z,39.22
2023-04-26T09:59:00.690Z,38.14
2023-04-26T10:02:03.908Z,37.38
2023-04-26T10:05:07.639Z,37.36
2023-04-26T10:08:10.473Z,36.40
2023-04-26T10:11:14.077Z,37.22
2023-04-26T10:14:16.601Z,35.85
2023-04-26T10:17:21.043Z,36.29
2023-04-26T10:20:27.145Z,32.97
2023-04-26T10:23:30.188Z,35.15
2023-04-26T10:26:54.972Z,32.05
2023-04-26T10:29:59.270Z,33.68
2023-04-26T10:33:02.273Z,32.80
2023-04-26T10:36:14.494Z,34.08
2023-04-26T10:39:30.776Z,33.14
2023-04-26T10:42:33.949Z,31.47
2023-04-26T10:45:37.369Z,32.07
2023-04-26T10:48:40.566Z,31.58
2023-04-26T10:52:16.297Z,31.17
2023-04-26T10:55:40.030Z,31.38
2023-04-26T10:58:46.349Z,32.53
2023-04-26T11:01:49.530Z,35.93
2023-04-26T11:04:53.090Z,32.76
2023-04-26T11:08:06.701Z,33.54
2023-04-26T11:11:12.752Z,33.62
2023-04-26T11:14:16.448Z,30.23
2023-04-26T11:17:20.402Z,31.60
2023-04-26T11:20:23.681Z,32.30
2023-04-26T11:23:28.889Z,32.14
2023-04-26T11:26:37.085Z,30.64
2023-04-26T11:29:39.730Z,35.78
2023-04-26T11:32:42.489Z,32.13
2023-04-26T11:35:47.613Z,34.86
2023-04-26T11:38:51.697Z,34.40
2023-04-26T11:42:11.498Z,33.89
2023-04-26T11:45:18.766Z,33.96
2023-04-26T11:48:21.682Z,31.07
2023-04-26T11:51:25.965Z,30.56
2023-04-26T11:54:30.329Z,31.68
2023-04-26T11:57:34.298Z,29.89
2023-04-26T12:00:37.056Z,28.79
2023-04-26T12:03:40.488Z,29.31
2023-04-26T12:06:45.150Z,28.16
2023-04-26T12:09:48.354Z,32.20
2023-04-26T12:12:51.837Z,29.81
2023-04-26T12:15:54.821Z,29.58
2023-04-26T12:18:58.207Z,27.70
2023-04-26T12:22:01.599Z,29.03
2023-04-26T12:25:06.417Z,29.71
2023-04-26T12:28:13.754Z,30.95
2023-04-26T12:31:16.874Z,31.82
2023-04-26T12:34:19.905Z,31.16
2023-04-26T12:37:22.719Z,33.99
2023-04-26T12:40:26.102Z,33.88
2023-04-26T12:43:28.572Z,29.55
2023-04-26T12:46:31.454Z,24.38
2023-04-26T12:49:34.497Z,20.82
2023-04-26T12:52:37.441Z,24.64
2023-04-26T12:55:40.303Z,27.25
2023-04-26T12:58:43.439Z,30.97
2023-04-26T13:01:46.130Z,28.72
2023-04-26T13:04:49.232Z,22.75
2023-04-26T13:07:52.116Z,20.37
2023-04-26T13:10:55.232Z,19.06
2023-04-26T13:13:57.988Z,19.58
2023-04-26T13:17:01.949Z,22.31
2023-04-26T13:20:06.414Z,22.49
2023-04-26T13:23:11.647Z,20.97
2023-04-26T13:26:15.222Z,21.75
2023-04-26T13:29:18.525Z,25.17
2023-04-26T13:32:21.998Z,21.63
2023-04-26T13:35:25.775Z,17.46
2023-04-26T13:38:32.845Z,15.45
2023-04-26T13:41:36.912Z,14.22
2023-04-26T13:44:39.987Z,14.36
2023-04-26T13:47:43.020Z,17.93
2023-04-26T13:50:46.181Z,21.53
2023-04-26T13:53:49.178Z,26.07
2023-04-26T13:56:52.776Z,28.57
2023-04-26T13:59:55.961Z,29.35
2023-04-26T14:02:59.110Z,30.42
2023-04-26T14:06:03.573Z,32.50
2023-04-26T14:09:06.982Z,28.30
2023-04-26T14:12:10.457Z,20.44
2023-04-26T14:15:13.091Z,14.83
2023-04-26T14:18:17.374Z,16.90
2023-04-26T14:21:20.380Z,19.62
2023-04-26T14:24:23.487Z,22.03
2023-04-26T14:27:26.175Z,25.53
2023-04-26T14:30:29.285Z,27.48
2023-04-26T14:33:32.168Z,29.54
2023-04-26T14:36:35.154Z,29.69
2023-04-26T14:39:37.786Z,26.52
2023-04-26T14:42:45.902Z,24.75
2023-04-26T14:45:51.301Z,26.89
2023-04-26T14:48:55.257Z,27.68
2023-04-26T14:51:57.948Z,32.10
2023-04-26T14:55:00.754Z,33.40
2023-04-26T14:58:03.305Z,35.14
2023-04-26T15:01:06.458Z,33.23
2023-04-26T15:04:09.398Z,30.41
2023-04-26T15:07:21.063Z,21.74
2023-04-26T15:10:31.629Z,19.62
2023-04-26T15:13:34.803Z,17.15
2023-04-26T15:16:37.515Z,15.57
2023-04-26T15:19:40.573Z,19.71
2023-04-26T15:22:43.378Z,23.75
2023-04-26T15:25:46.538Z,27.91
2023-04-26T15:28:49.825Z,30.25
2023-04-26T15:31:52.994Z,32.12
2023-04-26T15:34:55.850Z,32.04
